createdAt,value
2022-12-18T00:02:17.962Z,6.25
2022-12-18T00:04:47.629Z,7.13
2022-12-18T00:07:22.375Z,6.30
2022-12-18T00:09:57.751Z,4.70
2022-12-18T00:12:31.771Z,6.82
2022-12-18T00:15:00.869Z,5.50
2022-12-18T00:17:41.275Z,6.55
2022-12-18T00:20:13.760Z,6.27
2022-12-18T00:22:40.938Z,4.53
2022-12-18T00:25:19.910Z,6.63
2022-12-18T00:27:52.451Z,5.97
2022-12-18T00:30:22.872Z,5.18
2022-12-18T00:32:55.233Z,5.37
2022-12-18T00:36:05.092Z,5.88
2022-12-18T00:38:50.214Z,6.50
2022-12-18T00:41:46.485Z,4.88
2022-12-18T00:44:18.925Z,5.95
2022-12-18T00:46:47.465Z,7.47
2022-12-18T00:49:21.253Z,4.45
2022-12-18T00:51:52.470Z,5.60
2022-12-18T00:54:22.897Z,6.80
2022-12-18T00:56:57.811Z,5.30
2022-12-18T00:59:24.990Z,7.20
2022-12-18T01:02:01.399Z,5.20
2022-12-18T01:04:35.255Z,6.70
2022-12-18T01:07:10.873Z,6.00
2022-12-18T01:09:39.197Z,6.63
2022-12-18T01:12:11.469Z,6.10
2022-12-18T01:14:41.530Z,5.93
2022-12-18T01:17:29.985Z,5.22
2022-12-18T01:20:08.773Z,4.95
2022-12-18T01:22:38.455Z,6.65
2022-12-18T01:25:14.702Z,5.93
2022-12-18T01:27:54.027Z,6.68
2022-12-18T01:30:27.593Z,7.07
2022-12-18T01:33:00.967Z,7.88
2022-12-18T01:35:44.205Z,6.55
2022-12-18T01:38:28.228Z,6.97
2022-12-18T01:41:22.696Z,6.82
2022-12-18T01:44:01.542Z,7.35
2022-12-18T01:46:33.452Z,5.68
2022-12-18T01:49:32.717Z,7.68
2022-12-18T01:52:09.868Z,7.73
2022-12-18T01:54:37.679Z,6.82
2022-12-18T01:58:01.885Z,7.00
2022-12-18T02:00:54.956Z,6.20
2022-12-18T02:03:23.591Z,7.13
2022-12-18T02:06:13.925Z,7.27
2022-12-18T02:08:50.596Z,7.07
2022-12-18T02:11:53.077Z,6.55
2022-12-18T02:14:30.710Z,6.45
2022-12-18T02:17:13.933Z,7.03
2022-12-18T02:20:08.782Z,6.07
2022-12-18T02:22:45.439Z,7.45
2022-12-18T02:25:41.950Z,6.97
2022-12-18T02:28:17.070Z,6.75
2022-12-18T02:30:50.041Z,5.85
2022-12-18T02:33:28.413Z,3.90
2022-12-18T02:36:15.527Z,6.38
2022-12-18T02:38:52.946Z,6.13
2022-12-18T02:41:24.181Z,6.35
2022-12-18T02:44:08.452Z,5.90
2022-12-18T02:46:45.514Z,5.60
2022-12-18T02:49:33.829Z,5.72
2022-12-18T02:52:18.513Z,3.10
2022-12-18T02:54:59.139Z,5.63
2022-12-18T02:58:01.518Z,5.90
2022-12-18T03:00:43.774Z,5.87
2022-12-18T03:03:22.931Z,6.65
2022-12-18T03:06:15.546Z,6.50
2022-12-18T03:08:56.164Z,6.80
2022-12-18T03:11:49.893Z,5.88
2022-12-18T03:14:25.332Z,5.87
2022-12-18T03:17:07.437Z,7.53
2022-12-18T03:19:38.052Z,6.82
2022-12-18T03:22:16.868Z,5.70
2022-12-18T03:24:52.612Z,6.68
2022-12-18T03:27:27.037Z,5.20
2022-12-18T03:30:25.925Z,5.90
2022-12-18T03:33:05.208Z,6.40
2022-12-18T03:35:43.439Z,7.45
2022-12-18T03:38:19.105Z,7.60
2022-12-18T03:40:52.524Z,5.17
2022-12-18T03:43:53.515Z,4.05
2022-12-18T03:46:39.818Z,6.20
2022-12-18T03:49:54.082Z,6.68
2022-12-18T03:53:00.168Z,7.55
2022-12-18T03:55:35.589Z,7.50
2022-12-18T03:58:25.562Z,5.93
2022-12-18T04:01:15.515Z,6.28
2022-12-18T04:03:48.033Z,7.07
2022-12-18T04:06:25.943Z,5.95
2022-12-18T04:09:05.184Z,6.03
2022-12-18T04:11:50.037Z,7.47
2022-12-18T04:14:18.271Z,7.22
2022-12-18T04:16:54.626Z,8.43
2022-12-18T04:19:31.581Z,7.60
2022-12-18T04:22:07.328Z,9.07
2022-12-18T04:24:43.542Z,7.55
2022-12-18T04:27:21.621Z,6.75
2022-12-18T04:29:56.677Z,7.40
2022-12-18T04:32:39.159Z,6.93
2022-12-18T04:35:23.254Z,6.03
2022-12-18T04:38:00.313Z,6.38
2022-12-18T04:40:33.271Z,5.65
2022-12-18T04:43:07.846Z,8.93
2022-12-18T04:45:37.657Z,7.93
2022-12-18T04:48:05.175Z,7.70
2022-12-18T04:50:35.561Z,8.38
2022-12-18T04:53:08.258Z,8.38
2022-12-18T04:55:37.776Z,7.10
2022-12-18T04:58:07.139Z,8.32
2022-12-18T05:00:41.550Z,6.97
2022-12-18T05:03:18.423Z,6.50
2022-12-18T05:05:48.402Z,7.43
2022-12-18T05:08:17.713Z,7.88
2022-12-18T05:10:51.181Z,7.90
2022-12-18T05:13:24.273Z,9.17
2022-12-18T05:15:59.871Z,9.43
2022-12-18T05:18:31.297Z,9.23
2022-12-18T05:20:59.334Z,8.60
2022-12-18T05:23:30.151Z,8.52
2022-12-18T05:26:06.910Z,9.63
2022-12-18T05:29:07.782Z,9.30
2022-12-18T05:31:54.413Z,10.93
2022-12-18T05:34:28.679Z,9.90
2022-12-18T05:36:58.339Z,10.68
2022-12-18T05:39:44.117Z,11.87
2022-12-18T05:42:36.020Z,13.10
2022-12-18T05:45:07.135Z,11.80
2022-12-18T05:47:58.058Z,12.52
2022-12-18T05:50:27.569Z,11.20
2022-12-18T05:53:07.208Z,10.87
2022-12-18T05:55:59.242Z,8.93
2022-12-18T05:58:31.695Z,8.80
2022-12-18T06:01:11.524Z,9.00
2022-12-18T06:03:59.847Z,9.43
2022-12-18T06:06:39.042Z,9.30
2022-12-18T06:09:20.180Z,10.35
2022-12-18T06:11:58.426Z,10.07
2022-12-18T06:14:41.131Z,9.82
2022-12-18T06:17:13.362Z,9.95
2022-12-18T06:19:51.918Z,9.53
2022-12-18T06:22:24.561Z,10.00
2022-12-18T06:24:58.762Z,10.15
2022-12-18T06:27:31.234Z,11.70
2022-12-18T06:30:01.108Z,10.02
2022-12-18T06:32:28.309Z,9.40
2022-12-18T06:35:02.600Z,10.98
2022-12-18T06:37:38.043Z,10.27
2022-12-18T06:40:12.917Z,9.55
2022-12-18T06:42:42.715Z,10.73
2022-12-18T06:45:13.060Z,10.57
2022-12-18T06:47:43.631Z,11.27
2022-12-18T06:50:20.626Z,10.25
2022-12-18T06:52:48.273Z,10.50
2022-12-18T06:55:15.403Z,10.15
2022-12-18T06:57:48.019Z,10.13
2022-12-18T07:00:20.203Z,10.13
2022-12-18T07:02:58.686Z,10.02
2022-12-18T07:05:30.582Z,9.10
2022-12-18T07:08:11.251Z,9.52
2022-12-18T07:10:48.226Z,10.07
2022-12-18T07:13:21.772Z,9.75
2022-12-18T07:15:51.417Z,8.85
2022-12-18T07:18:21.277Z,10.38
2022-12-18T07:20:59.726Z,10.27
2022-12-18T07:23:44.195Z,9.00
2022-12-18T07:26:20.692Z,11.15
2022-12-18T07:28:54.465Z,12.35
2022-12-18T07:31:26.308Z,9.00
2022-12-18T07:33:58.793Z,10.73
2022-12-18T07:36:29.570Z,9.50
2022-12-18T07:39:07.714Z,9.00
2022-12-18T07:41:45.205Z,9.57
2022-12-18T07:44:19.108Z,8.85
2022-12-18T07:46:54.406Z,8.23
2022-12-18T07:49:30.015Z,9.37
2022-12-18T07:52:06.413Z,8.98
2022-12-18T07:54:40.730Z,10.18
2022-12-18T07:57:41.443Z,9.50
2022-12-18T08:00:03.485Z,9.77
2022-12-18T08:02:45.509Z,9.47
2022-12-18T08:05:15.070Z,8.68
2022-12-18T08:07:46.829Z,9.40
2022-12-18T08:10:32.833Z,8.88
2022-12-18T08:13:04.600Z,9.95
2022-12-18T08:15:42.939Z,9.70
2022-12-18T08:18:26.909Z,9.63
2022-12-18T08:20:55.500Z,10.07
2022-12-18T08:23:26.533Z,10.73
2022-12-18T08:25:59.581Z,10.07
2022-12-18T08:28:45.757Z,8.50
2022-12-18T08:31:32.190Z,10.00
2022-12-18T08:34:27.149Z,9.00
2022-12-18T08:36:54.430Z,9.88
2022-12-18T08:39:27.301Z,10.85
2022-12-18T08:42:15.284Z,9.00
2022-12-18T08:44:53.981Z,8.88
2022-12-18T08:47:40.413Z,8.90
2022-12-18T08:50:14.345Z,10.05
2022-12-18T08:52:52.206Z,9.27
2022-12-18T08:55:31.739Z,10.47
2022-12-18T08:58:05.109Z,10.65
2022-12-18T09:00:37.474Z,10.45
2022-12-18T09:03:18.512Z,10.52
2022-12-18T09:05:48.729Z,9.60
2022-12-18T09:08:26.755Z,11.07
2022-12-18T09:10:54.204Z,10.52
2022-12-18T09:13:49.678Z,10.40
2022-12-18T09:16:27.399Z,9.98
2022-12-18T09:19:04.113Z,10.18
2022-12-18T09:21:35.976Z,9.67
2022-12-18T09:24:19.903Z,10.35
2022-12-18T09:26:54.789Z,10.32
2022-12-18T09:29:30.060Z,9.45
2022-12-18T09:32:05.027Z,9.63
2022-12-18T09:34:35.231Z,10.50
2022-12-18T09:37:02.403Z,8.85
2022-12-18T09:39:42.742Z,7.15
2022-12-18T09:42:38.102Z,7.28
2022-12-18T09:45:11.298Z,8.25
2022-12-18T09:47:53.074Z,8.67
2022-12-18T09:50:24.906Z,7.60
2022-12-18T09:52:58.427Z,7.80
2022-12-18T09:55:39.183Z,8.65
2022-12-18T09:58:33.480Z,7.97
2022-12-18T10:01:03.349Z,7.63
2022-12-18T10:03:35.826Z,7.15
2022-12-18T10:06:24.737Z,7.07
2022-12-18T10:09:17.407Z,7.97
2022-12-18T10:12:42.341Z,11.13
2022-12-18T10:15:38.285Z,7.97
2022-12-18T10:18:39.323Z,9.50
2022-12-18T10:21:24.738Z,10.43
2022-12-18T10:24:06.024Z,12.82
2022-12-18T10:26:36.479Z,12.43
2022-12-18T10:29:19.197Z,10.73
2022-12-18T10:31:49.467Z,10.43
2022-12-18T10:34:28.888Z,12.63
2022-12-18T10:37:03.308Z,9.90
2022-12-18T10:39:39.405Z,9.82
2022-12-18T10:42:27.243Z,9.20
2022-12-18T10:45:22.643Z,9.63
2022-12-18T10:47:53.442Z,10.00
2022-12-18T10:53:46.508Z,8.95
2022-12-18T10:56:32.656Z,9.53
2022-12-18T10:59:06.935Z,9.25
2022-12-18T11:01:59.119Z,10.70
2022-12-18T11:04:32.367Z,9.13
2022-12-18T11:07:16.468Z,9.10
2022-12-18T11:10:17.848Z,10.30
2022-12-18T11:12:55.615Z,10.93
2022-12-18T11:19:54.218Z,9.57
2022-12-18T11:22:31.449Z,3.85
2022-12-18T11:28:30.219Z,9.05
2022-12-18T11:31:28.448Z,8.10
2022-12-18T11:34:27.387Z,8.30
2022-12-18T11:37:05.277Z,7.97
2022-12-18T11:39:46.562Z,9.03
2022-12-18T11:42:51.147Z,9.30
2022-12-18T11:45:47.158Z,8.60
2022-12-18T11:48:30.888Z,8.45
2022-12-18T11:51:04.127Z,9.18
2022-12-18T11:53:32.071Z,9.40
2022-12-18T11:56:27.579Z,10.10
2022-12-18T11:59:29.468Z,9.23
2022-12-18T12:02:26.231Z,8.55
2022-12-18T12:05:32.068Z,9.93
2022-12-18T12:08:25.213Z,10.07
2022-12-18T12:11:18.238Z,10.90
2022-12-18T12:14:07.051Z,9.55
2022-12-18T12:16:43.309Z,9.77
2022-12-18T12:19:33.639Z,10.55
2022-12-18T12:22:44.767Z,10.17
2022-12-18T12:25:40.494Z,10.60
2022-12-18T12:28:40.829Z,11.95
2022-12-18T12:31:48.849Z,11.43
2022-12-18T12:34:22.037Z,11.00
2022-12-18T12:37:25.092Z,12.30
2022-12-18T12:39:59.864Z,12.35
2022-12-18T12:43:03.139Z,12.65
2022-12-18T12:46:07.838Z,12.57
2022-12-18T12:48:46.117Z,13.65
2022-12-18T12:51:29.131Z,12.37
2022-12-18T12:54:03.705Z,12.38
2022-12-18T12:56:51.675Z,11.50
2022-12-18T12:59:49.965Z,13.25
2022-12-18T13:02:27.130Z,12.80
2022-12-18T13:05:11.217Z,13.73
2022-12-18T13:08:00.811Z,12.77
2022-12-18T13:10:46.230Z,14.43
2022-12-18T13:13:25.628Z,11.82
2022-12-18T13:16:21.050Z,12.57
2022-12-18T13:18:58.774Z,13.60
2022-12-18T13:21:36.645Z,11.95
2022-12-18T13:24:27.128Z,11.55
2022-12-18T13:27:28.809Z,13.13
2022-12-18T13:29:59.214Z,11.50
2022-12-18T13:32:39.426Z,12.27
2022-12-18T13:35:21.537Z,11.27
2022-12-18T13:37:58.710Z,10.85
2022-12-18T13:40:50.040Z,12.65
2022-12-18T13:46:30.113Z,11.50
2022-12-18T13:49:20.906Z,13.50
2022-12-18T13:51:58.026Z,12.50
2022-12-18T13:54:46.749Z,12.82
2022-12-18T13:57:45.224Z,12.57
2022-12-18T14:00:24.218Z,14.67
2022-12-18T14:03:00.032Z,13.60
2022-12-18T14:05:43.431Z,14.32
2022-12-18T14:08:17.485Z,12.52
2022-12-18T14:10:53.306Z,13.35
2022-12-18T14:13:47.812Z,14.93
2022-12-18T14:16:23.231Z,14.65
2022-12-18T14:19:11.772Z,14.40
2022-12-18T14:21:55.129Z,14.38
2022-12-18T14:24:27.582Z,13.45
2022-12-18T14:26:54.710Z,16.00
2022-12-18T14:29:24.267Z,14.35
2022-12-18T14:32:15.016Z,13.30
2022-12-18T14:35:14.901Z,13.40
2022-12-18T14:37:47.370Z,13.95
2022-12-18T14:40:17.586Z,15.00
2022-12-18T14:42:58.035Z,16.20
2022-12-18T14:45:44.093Z,16.80
2022-12-18T14:48:53.563Z,15.95
2022-12-18T14:51:31.880Z,18.27
2022-12-18T14:54:05.381Z,16.27
2022-12-18T14:56:35.823Z,18.42
2022-12-18T14:59:32.719Z,18.88
2022-12-18T15:02:25.209Z,17.70
2022-12-18T15:05:29.106Z,18.13
2022-12-18T15:08:01.726Z,20.67
2022-12-18T15:10:35.436Z,22.33
2022-12-18T15:13:05.478Z,21.63
2022-12-18T15:15:38.766Z,20.90
2022-12-18T15:18:22.575Z,21.85
2022-12-18T15:21:11.062Z,22.60
2022-12-18T15:23:58.706Z,20.80
2022-12-18T15:27:05.183Z,18.67
2022-12-18T15:29:37.900Z,17.75
2022-12-18T15:32:32.171Z,16.77
2022-12-18T15:35:31.617Z,15.67
2022-12-18T15:38:03.594Z,16.15
2022-12-18T15:40:39.786Z,13.88
2022-12-18T15:43:27.764Z,14.27
2022-12-18T15:46:04.156Z,15.38
2022-12-18T15:48:49.704Z,13.10
2022-12-18T15:51:40.998Z,14.20
2022-12-18T15:54:18.687Z,16.55
2022-12-18T15:57:08.067Z,14.45
2022-12-18T15:59:46.061Z,17.08
2022-12-18T16:02:24.783Z,17.03
2022-12-18T16:04:55.180Z,16.00
2022-12-18T16:07:28.106Z,16.25
2022-12-18T16:10:07.853Z,15.73
2022-12-18T16:12:37.419Z,13.38
2022-12-18T16:15:12.263Z,15.53
2022-12-18T16:17:44.665Z,15.70
2022-12-18T16:20:31.687Z,15.20
2022-12-18T16:23:04.192Z,15.18
2022-12-18T16:25:34.230Z,15.98
2022-12-18T16:28:05.498Z,16.03
2022-12-18T16:30:42.951Z,16.30
2022-12-18T16:36:04.067Z,17.65
2022-12-18T16:38:34.559Z,17.85
2022-12-18T16:41:45.959Z,16.73
2022-12-18T16:44:22.181Z,17.05
2022-12-18T16:47:10.345Z,18.10
2022-12-18T16:49:46.641Z,17.73
2022-12-18T16:52:17.867Z,16.85
2022-12-18T16:54:47.798Z,18.10
2022-12-18T16:57:22.679Z,18.35
2022-12-18T16:59:57.648Z,18.00
2022-12-18T17:02:31.800Z,16.60
2022-12-18T17:05:02.748Z,18.10
2022-12-18T17:07:50.187Z,18.00
2022-12-18T17:10:29.975Z,16.92
2022-12-18T17:12:59.866Z,17.50
2022-12-18T17:15:27.193Z,19.08
2022-12-18T17:17:57.496Z,21.65
2022-12-18T17:20:24.589Z,21.13
2022-12-18T17:22:58.706Z,18.90
2022-12-18T17:25:37.074Z,18.05
2022-12-18T17:28:16.379Z,19.45
2022-12-18T17:30:43.748Z,17.52
2022-12-18T17:33:24.288Z,19.70
2022-12-18T17:35:57.098Z,20.85
2022-12-18T17:38:34.729Z,17.92
2022-12-18T17:41:07.261Z,20.38
2022-12-18T17:43:52.873Z,18.13
2022-12-18T17:46:20.551Z,18.77
2022-12-18T17:48:51.543Z,16.95
2022-12-18T17:51:23.090Z,16.73
2022-12-18T17:54:00.009Z,15.48
2022-12-18T17:56:28.457Z,16.42
2022-12-18T17:58:56.076Z,16.40
2022-12-18T18:01:29.444Z,13.50
2022-12-18T18:04:07.423Z,13.98
2022-12-18T18:06:39.229Z,12.75
2022-12-18T18:09:16.409Z,13.57
2022-12-18T18:12:12.374Z,13.70
2022-12-18T18:14:44.587Z,13.63
2022-12-18T18:17:16.547Z,13.40
2022-12-18T18:19:49.466Z,14.23
2022-12-18T18:22:20.420Z,14.05
2022-12-18T18:24:50.127Z,13.57
2022-12-18T18:27:22.419Z,14.63
2022-12-18T18:29:50.840Z,14.75
2022-12-18T18:32:20.971Z,16.02
2022-12-18T18:34:57.034Z,13.65
2022-12-18T18:37:28.817Z,14.17
2022-12-18T18:39:56.915Z,12.98
2022-12-18T18:42:27.723Z,11.80
2022-12-18T18:44:59.360Z,13.02
2022-12-18T18:47:30.993Z,12.23
2022-12-18T18:50:13.001Z,13.20
2022-12-18T18:52:42.922Z,13.25
2022-12-18T18:55:25.295Z,13.38
2022-12-18T18:57:58.257Z,12.68
2022-12-18T19:00:38.807Z,10.73
2022-12-18T19:03:10.274Z,10.73
2022-12-18T19:05:50.740Z,11.57
2022-12-18T19:08:44.576Z,9.48
2022-12-18T19:11:36.704Z,11.65
2022-12-18T19:14:09.531Z,10.15
2022-12-18T19:16:48.525Z,11.37
2022-12-18T19:19:22.076Z,9.50
2022-12-18T19:21:50.894Z,8.55
2022-12-18T19:24:23.908Z,10.77
2022-12-18T19:27:01.977Z,9.88
2022-12-18T19:29:34.758Z,10.83
2022-12-18T19:32:09.826Z,10.95
2022-12-18T19:34:49.907Z,10.98
2022-12-18T19:37:25.557Z,11.23
2022-12-18T19:39:54.967Z,10.55
2022-12-18T19:42:35.786Z,10.57
2022-12-18T19:45:17.918Z,10.98
2022-12-18T19:48:21.661Z,14.32
2022-12-18T19:50:56.623Z,20.48
2022-12-18T19:53:29.163Z,25.70
2022-12-18T19:56:01.467Z,28.70
2022-12-18T19:58:29.217Z,29.15
2022-12-18T20:01:02.532Z,29.92
2022-12-18T20:03:41.744Z,30.25
2022-12-18T20:06:16.696Z,32.88
2022-12-18T20:08:44.116Z,32.50
2022-12-18T20:11:15.956Z,33.58
2022-12-18T20:13:50.770Z,37.53
2022-12-18T20:16:24.138Z,39.60
2022-12-18T20:18:57.719Z,42.40
2022-12-18T20:21:25.851Z,47.90
2022-12-18T20:24:07.002Z,47.95
2022-12-18T20:26:39.326Z,45.58
2022-12-18T20:29:16.182Z,41.70
2022-12-18T20:31:52.950Z,38.33
2022-12-18T20:34:33.303Z,27.77
2022-12-18T20:37:03.981Z,24.45
2022-12-18T20:39:38.504Z,24.17
2022-12-18T20:42:12.746Z,23.10
2022-12-18T20:44:42.434Z,21.55
2022-12-18T20:47:16.057Z,19.13
2022-12-18T20:49:45.748Z,19.65
2022-12-18T20:52:26.876Z,19.50
2022-12-18T20:54:58.145Z,20.55
2022-12-18T20:57:34.268Z,21.65
2022-12-18T21:00:06.892Z,19.80
2022-12-18T21:02:42.439Z,19.92
2022-12-18T21:05:11.109Z,23.50
2022-12-18T21:07:38.305Z,23.92
2022-12-18T21:10:13.436Z,22.73
2022-12-18T21:13:00.023Z,25.33
2022-12-18T21:15:37.711Z,22.65
2022-12-18T21:18:25.248Z,25.13
2022-12-18T21:21:05.887Z,24.73
2022-12-18T21:23:44.035Z,27.23
2022-12-18T21:26:25.883Z,27.47
2022-12-18T21:29:04.365Z,24.88
2022-12-18T21:31:43.147Z,26.20
2022-12-18T21:34:21.459Z,25.83
2022-12-18T21:36:57.295Z,27.30
2022-12-18T21:39:43.993Z,23.97
2022-12-18T21:42:33.048Z,23.85
2022-12-18T21:45:09.106Z,24.63
2022-12-18T21:47:49.728Z,23.48
2022-12-18T21:50:17.599Z,22.23
2022-12-18T21:52:44.719Z,20.73
2022-12-18T21:55:13.091Z,18.83
2022-12-18T21:57:40.262Z,18.15
2022-12-18T22:00:19.298Z,16.15
2022-12-18T22:03:13.396Z,15.98
2022-12-18T22:05:46.257Z,12.03
2022-12-18T22:08:18.719Z,13.93
2022-12-18T22:10:52.046Z,13.20
2022-12-18T22:13:22.193Z,14.05
2022-12-18T22:16:02.134Z,13.70
2022-12-18T22:18:44.694Z,10.50
2022-12-18T22:21:36.706Z,11.65
2022-12-18T22:24:09.209Z,10.40
2022-12-18T22:26:40.173Z,11.73
2022-12-18T22:29:43.855Z,12.70
2022-12-18T22:32:29.441Z,14.60
2022-12-18T22:35:16.126Z,11.85
2022-12-18T22:37:50.410Z,13.63
2022-12-18T22:40:31.720Z,12.13
2022-12-18T22:43:07.403Z,12.82
2022-12-18T22:45:47.310Z,12.50
2022-12-18T22:48:22.477Z,12.82
2022-12-18T22:50:59.359Z,15.43
2022-12-18T22:53:26.968Z,12.93
2022-12-18T22:56:01.010Z,13.85
2022-12-18T22:58:31.682Z,10.80
2022-12-18T23:01:17.387Z,13.98
2022-12-18T23:04:00.035Z,14.10
2022-12-18T23:06:33.049Z,13.90
2022-12-18T23:09:05.358Z,15.73
2022-12-18T23:11:37.242Z,14.37
2022-12-18T23:14:04.592Z,13.15
2022-12-18T23:16:33.950Z,13.18
2022-12-18T23:19:25.783Z,12.13
2022-12-18T23:22:03.514Z,11.95
2022-12-18T23:24:37.668Z,12.03
2022-12-18T23:27:11.992Z,11.95
2022-12-18T23:29:41.945Z,11.48
2022-12-18T23:32:22.921Z,11.43
2022-12-18T23:34:59.637Z,10.50
2022-12-18T23:37:58.860Z,11.13
2022-12-18T23:40:45.358Z,9.77
2022-12-18T23:43:16.576Z,11.07
2022-12-18T23:45:52.554Z,11.85
2022-12-18T23:48:30.308Z,10.70
2022-12-18T23:51:08.189Z,12.93
2022-12-18T23:53:41.592Z,12.48
2022-12-18T23:56:17.305Z,11.45
2022-12-18T23:58:45.454Z,11.90
